X  CloseMetar Aviation Weather Data     LEVC Valencia

Temperatura

24°C Temperatura

17°C Punto de rocío

65% Humedad



Viento

19 KM/H

12 MPH

 5 M/S

10 KTS



50°
NE
Condiciones actuales

Parcialmente nublado Parcialmente nublado
Presión 1011.92 (hPa) - 29.88 (in)
Visibilidad 6.2 (mi) - 10 (km)
Aeropuerto
Airport-code LEVC

localidad Valencia 18 (km)

Metar:
LEVC 181800Z 05010G21KT 010V080 9999 FEW030 24/17 Q1012 NOSIG

Hora: 18-06-2019 20:00